LFMPLFCR

Guest
Details From LFMP - Rivesaltes
To LFCR - Rodez Marcillac
Flight Number -
Tags decoded
Created
Modified
Stats Distance 111 nm / 206 km
Max Altitude 0 ft / 0 m
Waypoints 5
Social Downloads 0
Likes 0
Share VATSIM

Download

Looking for another format? Having issues loading an existing format? Contact us
Advertisement - Login to hide

Notes

Requested: LFMP KELAM J27 BASLI LFCR

Route

LFMP KELAM J27 BASLI LFCR

ID Type Via Altitude Latitude Longitude Leg Dist Tot Dist Heading (true) Name
O LFMP APT - 0 ft / 0 m 42.74049˚ 2.87059˚ - 0 nm - Rivesaltes
KELAM FIX - 0 ft / 0 m 43.17194˚ 2.86861˚ 25 nm 25 nm 360° / 360° -
AFRIC FIX J27 (AWY-LO) 0 ft / 0 m 43.77417˚ 2.86917˚ 36 nm 62 nm 0° / 0° -
BASLI FIX J27 (AWY-LO) 0 ft / 0 m 44.11472˚ 2.98750˚ 21 nm 83 nm 14° / 14° -
O LFCR APT - 0 ft / 0 m 44.40789˚ 2.48265˚ 27 nm 111 nm 309° / 309° Rodez Marcillac

Altitude Profile

Advertisement - Login to hide

LFMP

Details ICAO LFMP (PGF)
Name Rivesaltes
Region France
Timezone Europe/Paris (UTC+2.0)
Stats Elevation 143 ft / 44 m (AMSL)
Location 42.740488° 2.870594°
Runways 2
Magnetic Variation 1.040° E

METAR

LFMP 210130Z AUTO 35004KT CAVOK 13/12 Q1013

Decode

TAF

TAF TAF LFMP 202130Z 2021/2115 CNL

Decode

Departure Runways

ID Width Length Bearing (true) Bearing (mag) Surface Threshold Offset Overrun Length
13 66 ft / 20 m 4,231 ft / 1,290 m 127.54° 126.50° Asphalt 492 ft / 150 m 0 ft / 0 m
15 148 ft / 45 m 8,189 ft / 2,496 m 148.38° 147.34° Asphalt 0 ft / 0 m 230 ft / 70 m
31 66 ft / 20 m 4,231 ft / 1,290 m 307.55° 306.51° Asphalt 1,148 ft / 350 m 0 ft / 0 m
33 148 ft / 45 m 8,189 ft / 2,496 m 328.39° 327.35° Asphalt 558 ft / 170 m 230 ft / 70 m

LFCR

Details ICAO LFCR (RDZ)
Name Rodez Marcillac
Region France
Timezone Europe/Paris (UTC+2.0)
Stats Elevation 1,910 ft / 582 m (AMSL)
Location 44.407888° 2.482646°
Runways 1
Magnetic Variation 0.897° E

METAR

LFCR 210130Z AUTO 14005KT CAVOK 11/10 Q1014 NOSIG

Decode

TAF

TAF LFCR 202300Z 2100/2124 VRB03KT CAVOK BECMG 2107/2109 14006KT BECMG 2110/2112 SCT035TCU PROB40 TEMPO 2113/2121 4000 SHRA FEW050CB PROB30 TEMPO 2114/2120 VRB15G25KT TSRA

Decode

Destination Runways

ID Width Length Bearing (true) Bearing (mag) Surface Threshold Offset Overrun Length
13 148 ft / 45 m 6,709 ft / 2,045 m 129.07° 128.17° Asphalt 0 ft / 0 m 656 ft / 200 m
31 148 ft / 45 m 6,709 ft / 2,045 m 309.08° 308.18° Asphalt 164 ft / 50 m 0 ft / 0 m

Approach Navaids

Runway Type Ident Frequency Range Bearing (true) Bearing (mag) Slope Elevation
13 Localiser RDE 110.75 MHz 18 nm / 33 km 129.25° 128.35° - 1,906 ft / 581 m (AMSL)
13 Glidescope RDE 110.75 MHz 10 nm / 19 km 129.07° 128.18° 3.00° 1,906 ft / 581 m (AMSL)
31 Localiser RDE 110.75 MHz 18 nm / 33 km 309.01° 308.11° - 1,914 ft / 583 m (AMSL)
31 Glidescope RDE 110.75 MHz 10 nm / 19 km 309.07° 308.18° 3.00° 1,914 ft / 583 m (AMSL)
31 DME RDE 110.75 MHz 18 nm / 33 km - - - 1,939 ft / 591 m (AMSL)